Airfield :
LOGIN :

Register | Disclaimer

   EN    FR    IT 

 










Legend :    VFR   Marginal VFR   IFR   Intensive IFR   Very Intensive IFR
Visi :
Ceiling :
>= 8 km
>= 3000ft
5 to 8 km
1000 to 3000 ft
1500m to 5 km
500 to 1000 ft
800 to 1500m
200 to 500 ft
< 800m
< 200 ft
Symbols :   Thunderstorms  Fog  Heavy snow  Heavy precipitations  Wind > 20 kt
SIGMETs :     Misc.  Thunderstorms  Icing  Turbulence  Mountain Waves  Volcanic Ashes







- Airport Elevation : 935 ft


EBFS - Florennes

CURRENT METAR :
  • 101233Z 29012KT 9999 FEW012 SCT018 BKN022 06/03 Q1024 WHT WHT TEMPO BLU

EXPIRED METARs :
  • 101223Z 29012KT 9999 FEW018 BKN026 06/03 Q1024 BLU BLU TEMPO WHT
  • 101155Z 30012KT 9999 FEW012 SCT015 BKN020 06/03 Q1024 WHT WHT TEMPO BLU
  • 101133Z 27013KT 9999 FEW012 SCT015 BKN020 06/04 Q1024 WHT WHT TEMPO BLU
  • 101105Z 28011KT 9999 FEW010 SCT015 BKN018 06/04 Q1024 WHT WHT TEMPO GRN
  • 101055Z 28010KT 9999 FEW009 SCT013 BKN018 06/04 Q1024 GRN WHT TEMPO GRN
  • 101025Z 28010KT 9999 FEW008 SCT012 BKN016 05/04 Q1024 GRN WHT TEMPO GRN
  • 100955Z 28011KT 9999 FEW008 SCT012 BKN016 05/04 Q1024 GRN WHT TEMPO GRN
  • 100925Z 28011KT 9999 FEW007 SCT012 BKN016 05/04 Q1024 GRN WHT TEMPO GRN

TAF TAF EBFS
Valid from the 10 at 13:00 until the 10 at 22:00 UTC


101141Z 1013/1022 29010KT 9999 FEW015 BKN025
TEMPO 1013/1021 30012G22KT 7000 -SHRA SCT015 BKN022
PROB40
TEMPO 1017/1021 4000 -SHRASN FEW008 SCT010 BKN015
No reported NOTAMs for that airfield.



MET'MAP, your aeronautical weather chart ! - Copyright ORBIFLY December 2007 - Disclaimer

ORBIFLY MET'MAP TEAM :

Programming & Development : Alexandra Zaïnal
Concept & Development : Baudouin d'Aumeries
Co-Development & Prog : Marc-Olivier Méhu
Technical & hardware support : Manuel Goepfert

Contact : metmap@orbifly.com




SOURCES & CREDITS :

   NOAA